Time;durP1;ratioP1;P1;durP2;ratioP2;P2;SDS_P1;SDS_P2;PMS_P1;PMS_P2;Temp;Humidity;BMP_temperature;BMP_pressure;BME280_temperature;BME280_humidity;BME280_pressure;Samples;Min_cycle;Max_cycle;Signal;HPM_P1;HPM_P2
2022/12/13 00:02:13;;;;;;;31.23;12.30;;;-0.70;74.70;;;;;;5023914;28;20573;-69
2022/12/13 00:04:41;;;;;;;34.78;13.20;;;-0.70;74.80;;;;;;5002439;28;20286;-68
2022/12/13 00:07:08;;;;;;;30.80;12.32;;;-0.70;74.90;;;;;;5032206;28;20057;-69
2022/12/13 00:09:35;;;;;;;35.42;14.40;;;-0.70;74.70;;;;;;5029973;28;20058;-69
2022/12/13 00:12:02;;;;;;;34.58;14.15;;;-0.70;74.10;;;;;;5027431;28;20568;-69
2022/12/13 00:14:29;;;;;;;33.43;13.37;;;-0.80;73.80;;;;;;5042784;28;20042;-69
2022/12/13 00:16:57;;;;;;;31.50;14.27;;;-0.90;73.80;;;;;;5014307;28;20292;-69
2022/12/13 00:19:24;;;;;;;30.90;12.75;;;-1.00;73.80;;;;;;5010022;28;20081;-69
2022/12/13 00:21:51;;;;;;;26.77;12.50;;;-1.10;73.60;;;;;;5002174;28;20489;-69
2022/12/13 00:24:18;;;;;;;30.30;12.25;;;-1.10;73.80;;;;;;5009978;28;20076;-69
2022/12/13 00:26:46;;;;;;;28.83;12.13;;;-1.10;74.10;;;;;;5027768;28;20706;-69
2022/12/13 00:29:13;;;;;;;26.85;11.18;;;-1.10;74.40;;;;;;5045956;28;20257;-69
2022/12/13 00:31:40;;;;;;;25.52;10.65;;;-1.10;74.60;;;;;;5012669;28;20045;-69
2022/12/13 00:34:09;;;;;;;28.75;11.63;;;-1.10;74.30;;;;;;5030543;28;20057;-69
2022/12/13 00:36:37;;;;;;;28.40;12.13;;;-1.10;74.10;;;;;;5009367;28;20057;-69
2022/12/13 00:39:04;;;;;;;27.63;11.13;;;-1.10;74.10;;;;;;5006318;28;20130;-69
2022/12/13 00:41:33;;;;;;;28.58;12.25;;;-1.20;74.10;;;;;;5022794;28;20282;-69
2022/12/13 00:44:01;;;;;;;28.65;10.73;;;-1.20;74.10;;;;;;5038814;28;20053;-69
2022/12/13 00:46:29;;;;;;;24.42;10.48;;;-1.30;74.00;;;;;;5004575;28;20049;-68
2022/12/13 00:48:57;;;;;;;27.65;11.07;;;-1.30;74.20;;;;;;5000801;28;20043;-69
2022/12/13 00:51:27;;;;;;;25.23;10.57;;;-1.30;74.50;;;;;;5011069;28;20233;-69
2022/12/13 00:53:55;;;;;;;24.88;10.80;;;-1.30;74.50;;;;;;5009568;28;20342;-69
2022/12/13 00:56:24;;;;;;;23.33;10.27;;;-1.30;74.60;;;;;;5009224;28;20993;-69
2022/12/13 00:58:52;;;;;;;25.40;11.23;;;-1.30;74.60;;;;;;5018285;28;20133;-69
2022/12/13 01:01:23;;;;;;;24.88;11.43;;;-1.30;74.70;;;;;;5026153;28;20054;-69
2022/12/13 01:03:50;;;;;;;27.20;11.27;;;-1.30;74.40;;;;;;5004014;28;20054;-69
2022/12/13 01:06:19;;;;;;;29.90;12.65;;;-1.30;74.10;;;;;;5025859;28;20286;-69
2022/12/13 01:08:48;;;;;;;27.85;12.15;;;-1.30;73.90;;;;;;5009284;28;20487;-69
2022/12/13 01:11:15;;;;;;;25.75;10.75;;;-1.50;74.00;;;;;;5009175;28;20137;-70
2022/12/13 01:13:43;;;;;;;24.40;9.85;;;-1.50;74.10;;;;;;5010763;28;20050;-69
2022/12/13 01:16:12;;;;;;;26.83;10.87;;;-1.60;74.00;;;;;;5045697;28;20057;-69
2022/12/13 01:18:40;;;;;;;24.23;10.45;;;-1.60;74.10;;;;;;5045627;28;20732;-69
2022/12/13 01:21:10;;;;;;;31.55;11.15;;;-1.70;74.40;;;;;;5005464;28;20065;-69
2022/12/13 01:23:37;;;;;;;26.98;10.75;;;-1.70;74.50;;;;;;5000675;28;20129;-69
2022/12/13 01:26:11;;;;;;;24.75;10.45;;;-1.70;74.50;;;;;;5010537;28;20047;-69
2022/12/13 01:28:39;;;;;;;26.23;11.20;;;-1.70;74.70;;;;;;5024664;28;20509;-69
2022/12/13 01:31:08;;;;;;;23.40;10.35;;;-1.70;74.90;;;;;;5025585;28;20272;-69
2022/12/13 01:33:37;;;;;;;27.20;10.90;;;-1.60;74.90;;;;;;5010254;28;20046;-69
2022/12/13 01:36:06;;;;;;;26.70;11.00;;;-1.60;74.80;;;;;;5025272;28;20133;-69
2022/12/13 01:38:34;;;;;;;25.50;10.90;;;-1.60;75.10;;;;;;5041773;28;20053;-69
2022/12/13 01:41:03;;;;;;;25.83;10.47;;;-1.60;75.20;;;;;;5010025;28;20058;-69
2022/12/13 01:43:51;;;;;;;26.55;11.98;;;-1.60;75.00;;;;;;5026853;28;20353;-69
2022/12/13 01:46:19;;;;;;;30.63;11.77;;;-1.60;74.80;;;;;;5028790;28;20062;-69
2022/12/13 01:48:49;;;;;;;26.83;11.68;;;-1.60;74.70;;;;;;5008240;28;20057;-69
2022/12/13 01:51:20;;;;;;;27.40;11.80;;;-1.70;74.80;;;;;;5024738;28;21038;-69
2022/12/13 01:53:49;;;;;;;28.67;11.83;;;-1.70;75.00;;;;;;5007709;28;20050;-69
2022/12/13 01:56:20;;;;;;;26.25;11.82;;;-1.70;75.10;;;;;;4993062;28;20281;-69
2022/12/13 01:58:51;;;;;;;25.15;11.10;;;-1.70;75.40;;;;;;5001704;28;20142;-69
2022/12/13 02:01:19;;;;;;;26.00;10.98;;;-1.70;75.50;;;;;;5028532;28;20054;-69
2022/12/13 02:03:46;;;;;;;25.73;10.93;;;-1.70;75.50;;;;;;5021575;28;20050;-69
2022/12/13 02:06:18;;;;;;;24.53;10.53;;;-1.70;75.40;;;;;;5025150;28;20698;-69
2022/12/13 02:08:46;;;;;;;25.30;11.27;;;-1.70;75.30;;;;;;5026515;28;20274;-69
2022/12/13 02:11:15;;;;;;;23.40;11.60;;;-1.80;75.20;;;;;;5001445;28;20046;-70
2022/12/13 02:13:42;;;;;;;26.17;10.65;;;-1.80;75.20;;;;;;5009064;28;20141;-69
2022/12/13 02:16:19;;;;;;;26.55;11.45;;;-1.80;75.20;;;;;;5009071;28;20162;-69
2022/12/13 02:18:57;;;;;;;27.10;11.33;;;-1.90;75.40;;;;;;5015523;28;20058;-69
2022/12/13 02:21:32;;;;;;;24.80;11.20;;;-1.90;75.50;;;;;;5017240;28;20317;-69
2022/12/13 02:24:33;;;;;;;25.63;10.93;;;-1.80;75.70;;;;;;5008059;28;20046;-69
2022/12/13 02:27:13;;;;;;;27.85;12.40;;;-1.80;75.30;;;;;;5025052;28;20078;-69
2022/12/13 02:30:12;;;;;;;26.52;10.90;;;-1.90;75.30;;;;;;5036419;28;20077;-69
2022/12/13 02:32:51;;;;;;;25.80;10.53;;;-1.90;75.50;;;;;;5009414;28;20137;-69
2022/12/13 02:35:23;;;;;;;26.63;10.82;;;-1.90;75.60;;;;;;5008181;28;20308;-69
2022/12/13 02:37:58;;;;;;;28.25;11.52;;;-1.90;75.50;;;;;;5039778;28;20141;-69
2022/12/13 02:40:30;;;;;;;25.73;11.15;;;-1.90;75.40;;;;;;5009322;28;20121;-69
2022/12/13 02:43:01;;;;;;;25.35;11.15;;;-1.90;75.50;;;;;;5008006;28;20098;-69
2022/12/13 02:45:34;;;;;;;25.37;11.50;;;-1.90;75.70;;;;;;5024654;28;20054;-69
2022/12/13 02:48:04;;;;;;;24.92;11.20;;;-1.90;75.70;;;;;;5024296;28;20305;-69
2022/12/13 02:50:33;;;;;;;25.75;11.35;;;-1.90;75.70;;;;;;5009170;28;20058;-69
2022/12/13 02:53:01;;;;;;;25.10;11.13;;;-1.90;75.80;;;;;;5024310;28;20058;-69
2022/12/13 02:55:28;;;;;;;24.58;10.73;;;-1.80;75.80;;;;;;5008514;28;20437;-69
2022/12/13 02:57:55;;;;;;;26.73;11.50;;;-1.80;75.80;;;;;;5017760;28;20058;-69
2022/12/13 03:00:30;;;;;;;24.50;10.68;;;-1.80;75.70;;;;;;5025608;28;20300;-69
2022/12/13 03:03:13;;;;;;;22.92;9.95;;;-1.80;75.70;;;;;;5005916;28;20046;-70
2022/12/13 03:08:45;;;;;;;24.95;10.98;;;-1.80;75.30;;;;;;5005152;28;20583;-69
2022/12/13 03:11:15;;;;;;;22.50;10.20;;;-1.90;75.10;;;;;;5008870;28;20058;-69
2022/12/13 03:13:49;;;;;;;24.20;10.25;;;-1.90;75.20;;;;;;5003509;28;20971;-69
2022/12/13 03:16:28;;;;;;;70.65;19.75;;;-2.00;75.50;;;;;;5012362;28;20054;-69
2022/12/13 03:19:00;;;;;;;44.70;15.43;;;-2.00;75.50;;;;;;5010475;28;20082;-70
2022/12/13 03:21:28;;;;;;;36.35;12.65;;;-1.90;75.50;;;;;;5003593;28;20054;-69
2022/12/13 03:23:55;;;;;;;32.53;12.77;;;-2.00;75.40;;;;;;5002387;28;20097;-69
2022/12/13 03:26:26;;;;;;;31.60;11.32;;;-1.90;75.40;;;;;;5006297;28;20385;-69
2022/12/13 03:28:53;;;;;;;25.55;11.40;;;-1.90;75.60;;;;;;5026417;28;20121;-69
2022/12/13 03:31:20;;;;;;;38.08;13.15;;;-1.90;75.60;;;;;;5023066;28;20054;-69
2022/12/13 03:33:49;;;;;;;47.92;15.25;;;-1.90;75.40;;;;;;4999704;28;20127;-69
2022/12/13 03:36:18;;;;;;;46.83;14.77;;;-1.90;75.20;;;;;;5011561;28;20050;-69
2022/12/13 03:38:47;;;;;;;49.63;15.70;;;-1.90;75.30;;;;;;5022619;28;20278;-69
2022/12/13 03:41:19;;;;;;;46.38;16.52;;;-1.90;75.50;;;;;;5011702;28;20104;-69
2022/12/13 03:43:46;;;;;;;42.78;15.68;;;-1.90;75.50;;;;;;5049320;28;20050;-69
2022/12/13 03:46:14;;;;;;;44.53;14.10;;;-1.90;75.50;;;;;;4998912;28;20525;-69
2022/12/13 03:48:41;;;;;;;40.67;13.40;;;-1.90;75.40;;;;;;5006909;28;20489;-69
2022/12/13 03:51:08;;;;;;;28.45;12.38;;;-1.90;75.10;;;;;;5018372;28;20259;-69
2022/12/13 03:53:36;;;;;;;29.67;11.93;;;-1.90;74.90;;;;;;5026788;28;20061;-69
2022/12/13 03:56:06;;;;;;;28.70;11.63;;;-2.00;74.70;;;;;;5009646;28;20074;-69
2022/12/13 03:58:34;;;;;;;25.85;11.20;;;-2.00;74.80;;;;;;5009507;28;20050;-69
2022/12/13 04:01:01;;;;;;;27.33;11.40;;;-2.10;75.00;;;;;;5002178;28;20587;-69
2022/12/13 04:03:30;;;;;;;26.25;11.45;;;-2.10;75.10;;;;;;5043294;28;20267;-69
2022/12/13 04:05:57;;;;;;;26.20;10.85;;;-2.10;75.20;;;;;;5007958;28;20121;-69
2022/12/13 04:08:25;;;;;;;26.83;10.85;;;-2.10;75.30;;;;;;5017684;28;20564;-69
2022/12/13 04:10:53;;;;;;;32.60;11.93;;;-2.00;75.00;;;;;;5017888;28;20046;-69
2022/12/13 04:13:31;;;;;;;28.57;11.20;;;-2.10;74.90;;;;;;5009916;28;21125;-69
2022/12/13 04:15:59;;;;;;;28.95;11.82;;;-2.10;75.00;;;;;;5007496;28;20262;-69
2022/12/13 04:18:26;;;;;;;26.70;11.15;;;-2.10;74.80;;;;;;5034574;28;20058;-69
2022/12/13 04:20:53;;;;;;;29.25;11.70;;;-2.10;75.00;;;;;;5012328;28;20504;-69
2022/12/13 04:23:20;;;;;;;27.90;11.57;;;-2.10;75.10;;;;;;5009188;28;20082;-69
2022/12/13 04:25:47;;;;;;;27.07;11.37;;;-2.10;75.30;;;;;;5010807;28;20062;-69
2022/12/13 04:28:16;;;;;;;30.92;11.90;;;-2.10;74.80;;;;;;5021304;28;20329;-69
2022/12/13 04:30:43;;;;;;;30.05;12.27;;;-2.20;74.60;;;;;;5008415;28;20046;-69
2022/12/13 04:33:10;;;;;;;31.52;12.88;;;-2.20;74.70;;;;;;5025756;28;20056;-69
2022/12/13 04:35:37;;;;;;;31.33;12.07;;;-2.30;74.90;;;;;;5035295;28;20631;-69
2022/12/13 04:38:04;;;;;;;28.23;11.73;;;-2.30;75.00;;;;;;5010802;28;20152;-69
2022/12/13 04:40:31;;;;;;;27.17;11.65;;;-2.30;75.00;;;;;;5024256;28;20270;-69
2022/12/13 04:42:58;;;;;;;26.73;11.25;;;-2.30;75.20;;;;;;5024797;28;20494;-69
2022/12/13 04:45:27;;;;;;;25.30;11.38;;;-2.20;75.40;;;;;;5040271;28;20054;-69
2022/12/13 04:47:54;;;;;;;28.52;11.88;;;-2.20;75.30;;;;;;5007466;28;20051;-69
2022/12/13 04:50:21;;;;;;;25.73;10.93;;;-2.20;75.00;;;;;;5020404;28;20058;-69
2022/12/13 04:52:48;;;;;;;27.73;11.57;;;-2.20;74.80;;;;;;5005025;28;20254;-69
2022/12/13 04:55:15;;;;;;;28.38;11.30;;;-2.20;74.70;;;;;;5026120;28;20076;-69
2022/12/13 04:57:42;;;;;;;26.75;11.95;;;-2.20;74.80;;;;;;5008958;28;20169;-69
2022/12/13 05:00:13;;;;;;;26.35;10.60;;;-2.30;75.00;;;;;;5002818;28;20070;-69
2022/12/13 05:02:41;;;;;;;25.17;10.53;;;-2.30;75.10;;;;;;5008580;28;20057;-69
2022/12/13 05:05:09;;;;;;;27.77;11.30;;;-2.20;75.10;;;;;;5002185;28;20344;-69
2022/12/13 05:07:37;;;;;;;25.30;10.68;;;-2.20;75.10;;;;;;5013094;28;20058;-69
2022/12/13 05:10:05;;;;;;;26.13;10.85;;;-2.20;75.10;;;;;;5030735;28;20133;-69
2022/12/13 05:12:32;;;;;;;24.33;10.93;;;-2.20;74.80;;;;;;5021226;28;20566;-69
2022/12/13 05:14:59;;;;;;;28.93;11.20;;;-2.20;74.60;;;;;;5008649;28;20081;-69
2022/12/13 05:17:26;;;;;;;26.60;11.70;;;-2.20;74.80;;;;;;5028115;28;20300;-69
2022/12/13 05:19:54;;;;;;;23.85;11.05;;;-2.20;74.80;;;;;;5017011;28;20129;-69
2022/12/13 05:22:21;;;;;;;24.23;10.32;;;-2.20;74.90;;;;;;5010426;28;20549;-69
2022/12/13 05:24:49;;;;;;;25.50;11.85;;;-2.20;74.70;;;;;;5010195;28;20134;-69
2022/12/13 05:27:16;;;;;;;24.70;10.80;;;-2.20;74.70;;;;;;5002097;28;20061;-69
2022/12/13 05:29:44;;;;;;;24.25;10.38;;;-2.20;74.50;;;;;;5006993;28;20268;-69
2022/12/13 05:32:11;;;;;;;21.10;10.63;;;-2.20;74.60;;;;;;5006968;28;20168;-69
2022/12/13 05:34:38;;;;;;;24.27;10.70;;;-2.20;74.70;;;;;;5012113;28;20054;-69
2022/12/13 05:37:06;;;;;;;24.80;10.63;;;-2.30;74.80;;;;;;5008760;28;20053;-69
2022/12/13 05:39:33;;;;;;;22.07;10.37;;;-2.20;74.80;;;;;;5009834;28;20058;-70
2022/12/13 05:42:00;;;;;;;29.85;11.00;;;-2.20;74.70;;;;;;5009851;28;21367;-69
2022/12/13 05:44:27;;;;;;;24.98;11.20;;;-2.20;74.70;;;;;;5016929;28;20619;-69
2022/12/13 05:46:54;;;;;;;28.05;11.23;;;-2.20;74.70;;;;;;5022537;28;20047;-70
2022/12/13 05:49:21;;;;;;;23.17;10.60;;;-2.30;74.70;;;;;;5001106;28;20161;-69
2022/12/13 05:51:48;;;;;;;26.40;11.43;;;-2.30;74.60;;;;;;5024893;28;20050;-69
2022/12/13 05:54:18;;;;;;;24.35;11.52;;;-2.30;74.60;;;;;;5024868;28;20356;-69
2022/12/13 05:56:45;;;;;;;28.35;11.68;;;-2.30;74.80;;;;;;5003434;28;20054;-69
2022/12/13 05:59:12;;;;;;;24.70;11.77;;;-2.30;74.70;;;;;;5013248;28;20066;-69
2022/12/13 06:01:39;;;;;;;26.25;12.02;;;-2.30;74.80;;;;;;5008693;28;20057;-69
2022/12/13 06:04:06;;;;;;;27.07;11.80;;;-2.30;75.00;;;;;;5025217;28;20051;-69
2022/12/13 06:06:33;;;;;;;23.83;11.88;;;-2.30;75.00;;;;;;5004019;28;20274;-69
2022/12/13 06:09:00;;;;;;;29.42;11.93;;;-2.30;75.10;;;;;;5005005;28;20054;-69
2022/12/13 06:11:28;;;;;;;26.65;11.88;;;-2.30;75.00;;;;;;4981251;28;20500;-69
2022/12/13 06:13:55;;;;;;;27.77;11.57;;;-2.30;75.00;;;;;;5006562;28;20073;-69
2022/12/13 06:16:23;;;;;;;26.27;11.50;;;-2.30;75.10;;;;;;5003292;28;20053;-69
2022/12/13 06:18:51;;;;;;;27.73;12.13;;;-2.20;75.10;;;;;;5023315;28;20542;-69
2022/12/13 06:21:18;;;;;;;28.15;12.30;;;-2.20;75.00;;;;;;5017740;28;20504;-69
2022/12/13 06:23:45;;;;;;;30.88;12.82;;;-2.20;75.00;;;;;;5024184;28;20436;-69
2022/12/13 06:26:12;;;;;;;24.80;11.77;;;-2.20;75.10;;;;;;5008311;28;20052;-69
2022/12/13 06:28:40;;;;;;;24.60;11.47;;;-2.20;75.10;;;;;;5007986;28;20505;-69
2022/12/13 06:31:07;;;;;;;26.35;12.30;;;-2.20;75.00;;;;;;5007573;28;20345;-69
2022/12/13 06:33:35;;;;;;;27.20;12.20;;;-2.30;75.10;;;;;;5003177;28;20129;-69
2022/12/13 06:36:03;;;;;;;27.17;12.55;;;-2.20;75.10;;;;;;5007555;28;20053;-69
2022/12/13 06:38:31;;;;;;;27.00;12.50;;;-2.20;75.30;;;;;;5015693;28;20059;-69
2022/12/13 06:41:07;;;;;;;26.60;12.03;;;-2.20;75.20;;;;;;5010222;28;20813;-69
2022/12/13 06:43:35;;;;;;;26.90;11.45;;;-2.30;75.00;;;;;;5026435;28;20250;-69
2022/12/13 06:46:04;;;;;;;28.20;11.95;;;-2.30;74.80;;;;;;5045110;28;20050;-69
2022/12/13 06:48:32;;;;;;;27.30;12.02;;;-2.30;75.00;;;;;;5046605;28;20053;-69
2022/12/13 06:51:02;;;;;;;26.48;11.65;;;-2.30;75.10;;;;;;5043193;28;20047;-69
2022/12/13 06:53:30;;;;;;;30.60;12.47;;;-2.30;75.20;;;;;;5004080;28;20425;-69
2022/12/13 06:55:57;;;;;;;28.83;12.38;;;-2.30;75.20;;;;;;5023820;28;20323;-69
2022/12/13 06:58:24;;;;;;;29.88;12.95;;;-2.30;75.30;;;;;;5002575;28;20050;-69
2022/12/13 07:01:01;;;;;;;30.13;13.07;;;-2.20;75.20;;;;;;5009806;28;20425;-69
2022/12/13 07:03:30;;;;;;;30.88;12.77;;;-2.30;75.10;;;;;;5003870;28;20053;-69
2022/12/13 07:05:59;;;;;;;26.43;12.63;;;-2.30;74.80;;;;;;5002321;28;20129;-69
2022/12/13 07:08:26;;;;;;;28.90;12.82;;;-2.30;74.80;;;;;;5026604;28;20340;-69
2022/12/13 07:10:54;;;;;;;52.58;24.58;;;-2.30;75.00;;;;;;5049902;28;20054;-69
2022/12/13 07:13:21;;;;;;;43.88;18.25;;;-2.30;75.10;;;;;;5002678;28;20090;-69
2022/12/13 07:15:49;;;;;;;30.50;13.20;;;-2.30;75.10;;;;;;5014192;28;20173;-69
2022/12/13 07:18:17;;;;;;;32.13;13.90;;;-2.30;75.20;;;;;;5011247;28;20066;-69
2022/12/13 07:20:45;;;;;;;31.63;13.48;;;-2.30;75.20;;;;;;5017944;28;21012;-70
2022/12/13 07:23:13;;;;;;;30.92;12.82;;;-2.30;75.20;;;;;;5030647;28;20121;-70
2022/12/13 07:25:40;;;;;;;33.28;12.98;;;-2.30;75.20;;;;;;5015303;28;21118;-70
2022/12/13 07:28:08;;;;;;;30.67;12.50;;;-2.30;75.30;;;;;;5042392;28;20098;-69
2022/12/13 07:30:38;;;;;;;32.67;13.13;;;-2.30;75.00;;;;;;5014967;28;20065;-70
2022/12/13 07:33:06;;;;;;;32.25;12.70;;;-2.30;75.00;;;;;;5014695;28;20308;-69
2022/12/13 07:35:35;;;;;;;29.30;12.73;;;-2.30;75.10;;;;;;5013173;28;20899;-70
2022/12/13 07:38:03;;;;;;;27.90;12.30;;;-2.30;75.20;;;;;;5009856;28;20057;-70
2022/12/13 07:40:31;;;;;;;32.25;12.68;;;-2.30;75.00;;;;;;5010531;28;20512;-70
2022/12/13 07:42:58;;;;;;;34.00;14.57;;;-2.30;75.00;;;;;;5008994;28;20098;-70
2022/12/13 07:45:25;;;;;;;32.63;13.60;;;-2.30;75.20;;;;;;5009751;28;20286;-69
2022/12/13 07:47:52;;;;;;;31.02;12.65;;;-2.30;75.00;;;;;;5010102;28;20058;-71
2022/12/13 07:50:20;;;;;;;29.13;12.13;;;-2.30;74.90;;;;;;5007193;28;20054;-70
2022/12/13 07:52:48;;;;;;;34.20;14.65;;;-2.30;74.80;;;;;;5005431;28;20070;-69
2022/12/13 07:55:17;;;;;;;35.80;15.30;;;-2.30;74.90;;;;;;5007044;28;20054;-70
2022/12/13 07:57:45;;;;;;;33.08;14.82;;;-2.30;74.90;;;;;;5008526;28;20266;-69
2022/12/13 08:00:13;;;;;;;35.90;14.73;;;-2.30;74.70;;;;;;5011578;28;20169;-69
2022/12/13 08:02:41;;;;;;;35.20;14.10;;;-2.30;74.70;;;;;;5034042;28;20515;-69
2022/12/13 08:05:09;;;;;;;33.72;14.77;;;-2.40;74.70;;;;;;5009335;28;20054;-69
2022/12/13 08:07:36;;;;;;;37.90;15.17;;;-2.40;74.90;;;;;;5025614;28;20061;-69
2022/12/13 08:10:04;;;;;;;31.45;14.85;;;-2.30;75.00;;;;;;5007301;28;20776;-69
2022/12/13 08:12:32;;;;;;;43.05;17.50;;;-2.40;75.00;;;;;;5023255;28;21008;-69
2022/12/13 08:14:59;;;;;;;36.33;15.73;;;-2.40;75.10;;;;;;5023833;28;20051;-69
2022/12/13 08:17:27;;;;;;;34.65;15.23;;;-2.40;75.00;;;;;;5002058;28;20058;-69
2022/12/13 08:19:54;;;;;;;33.90;13.83;;;-2.40;75.10;;;;;;5008659;28;20057;-69
2022/12/13 08:22:21;;;;;;;31.65;14.45;;;-2.40;75.10;;;;;;5017352;28;20921;-70
2022/12/13 08:24:48;;;;;;;36.22;15.35;;;-2.40;75.10;;;;;;5013976;28;20161;-69
2022/12/13 08:27:15;;;;;;;36.70;15.98;;;-2.30;75.10;;;;;;5013368;28;20845;-69
2022/12/13 08:29:44;;;;;;;40.00;16.05;;;-2.30;75.00;;;;;;5012825;28;20528;-69
2022/12/13 08:32:12;;;;;;;41.47;18.57;;;-2.40;75.00;;;;;;4995944;28;20049;-69
2022/12/13 08:34:41;;;;;;;38.45;16.85;;;-2.40;75.00;;;;;;5011055;28;20297;-70
2022/12/13 08:37:08;;;;;;;37.90;15.48;;;-2.40;75.10;;;;;;5006586;28;20055;-70
2022/12/13 08:39:37;;;;;;;35.67;15.43;;;-2.50;75.10;;;;;;5007030;28;20046;-70
2022/12/13 08:42:07;;;;;;;39.15;16.05;;;-2.50;75.30;;;;;;5039268;28;20042;-70
2022/12/13 08:44:34;;;;;;;41.97;16.67;;;-2.50;75.40;;;;;;5041044;28;20140;-70
2022/12/13 08:47:03;;;;;;;40.90;16.17;;;-2.50;75.50;;;;;;5004451;28;21141;-70
2022/12/13 08:49:30;;;;;;;38.50;17.45;;;-2.60;75.50;;;;;;5022365;28;20054;-70
2022/12/13 08:51:57;;;;;;;40.28;16.85;;;-2.60;75.70;;;;;;5029150;28;20411;-70
2022/12/13 08:54:24;;;;;;;39.28;16.55;;;-2.60;75.90;;;;;;5007419;28;20125;-70
2022/12/13 08:56:51;;;;;;;40.23;17.23;;;-2.60;76.00;;;;;;5006942;28;20055;-70
2022/12/13 08:59:19;;;;;;;52.50;23.70;;;-2.60;76.00;;;;;;5021634;28;20793;-70
2022/12/13 09:01:46;;;;;;;40.75;17.50;;;-2.70;76.20;;;;;;5003433;28;20047;-70
2022/12/13 09:04:14;;;;;;;52.72;21.90;;;-2.70;76.40;;;;;;5006595;28;20162;-69
2022/12/13 09:06:43;;;;;;;49.78;24.60;;;-2.70;76.50;;;;;;5008497;28;20058;-70
2022/12/13 09:09:10;;;;;;;40.87;18.97;;;-2.70;76.80;;;;;;5022242;28;20092;-70
2022/12/13 09:11:39;;;;;;;44.92;19.20;;;-2.70;77.00;;;;;;5006952;28;20316;-70
2022/12/13 09:14:07;;;;;;;39.83;16.35;;;-2.70;77.20;;;;;;5009088;28;20057;-70
2022/12/13 09:16:39;;;;;;;41.58;16.65;;;-2.70;77.60;;;;;;5007714;28;20137;-70
2022/12/13 09:19:07;;;;;;;39.50;16.67;;;-2.70;77.70;;;;;;5005674;28;20058;-70
2022/12/13 09:21:35;;;;;;;46.30;19.77;;;-2.70;78.10;;;;;;5037809;28;20050;-70
2022/12/13 09:24:02;;;;;;;42.88;18.75;;;-2.70;78.30;;;;;;5041572;28;20996;-70
2022/12/13 09:26:30;;;;;;;45.92;21.88;;;-2.70;78.50;;;;;;5008286;28;20547;-70
2022/12/13 09:28:57;;;;;;;47.42;18.80;;;-2.60;78.40;;;;;;5009408;28;20055;-71
2022/12/13 09:31:24;;;;;;;43.10;19.08;;;-2.60;78.70;;;;;;5008017;28;20053;-70
2022/12/13 09:33:51;;;;;;;46.10;19.27;;;-2.60;78.70;;;;;;5023267;28;20833;-71
2022/12/13 09:36:20;;;;;;;43.95;18.30;;;-2.50;78.90;;;;;;5021139;28;20322;-70
2022/12/13 09:38:48;;;;;;;40.65;17.67;;;-2.50;79.10;;;;;;5020751;28;20054;-71
2022/12/13 09:41:24;;;;;;;43.33;19.02;;;-2.50;78.90;;;;;;5022627;28;20046;-71
2022/12/13 09:43:55;;;;;;;43.55;18.48;;;-2.40;79.00;;;;;;5017316;28;20410;-71
2022/12/13 09:46:29;;;;;;;43.20;18.70;;;-2.40;78.90;;;;;;5014701;28;20064;-72
2022/12/13 09:48:57;;;;;;;45.33;18.02;;;-2.40;78.80;;;;;;5007298;28;20353;-72
2022/12/13 09:51:25;;;;;;;46.60;19.20;;;-2.30;78.90;;;;;;5018801;28;20069;-72
2022/12/13 09:53:54;;;;;;;38.05;17.40;;;-2.20;79.00;;;;;;4998441;28;20080;-71
2022/12/13 09:56:23;;;;;;;41.67;19.00;;;-2.20;79.10;;;;;;5020630;28;20058;-72
2022/12/13 09:58:52;;;;;;;44.30;17.50;;;-2.10;79.20;;;;;;4999002;28;20090;-71
2022/12/13 10:01:21;;;;;;;50.83;20.88;;;-2.10;79.40;;;;;;5013862;28;20759;-71
2022/12/13 10:03:50;;;;;;;40.55;17.70;;;-2.10;79.70;;;;;;5040569;28;20129;-71
2022/12/13 10:06:19;;;;;;;39.28;17.38;;;-2.00;79.80;;;;;;5009480;28;20057;-71
2022/12/13 10:08:50;;;;;;;43.47;18.58;;;-1.90;79.70;;;;;;5015183;28;20596;-70
2022/12/13 10:11:20;;;;;;;37.53;16.43;;;-1.90;79.70;;;;;;5018090;28;20041;-70
2022/12/13 10:13:55;;;;;;;41.20;16.52;;;-1.80;79.60;;;;;;5018774;28;20406;-70
2022/12/13 10:16:28;;;;;;;40.88;17.83;;;-1.70;79.90;;;;;;5019525;28;20057;-71
2022/12/13 10:18:55;;;;;;;37.28;15.75;;;-1.70;79.70;;;;;;5028414;28;20054;-70
2022/12/13 10:21:28;;;;;;;37.97;15.60;;;-1.60;80.00;;;;;;5024143;28;20046;-70
2022/12/13 10:23:55;;;;;;;37.17;16.60;;;-1.60;80.10;;;;;;5011598;28;20053;-70
2022/12/13 10:26:24;;;;;;;42.28;17.52;;;-1.50;80.20;;;;;;5012785;28;20251;-70
2022/12/13 10:29:01;;;;;;;39.15;17.15;;;-1.50;80.10;;;;;;5012466;28;20057;-70
2022/12/13 10:31:28;;;;;;;45.15;18.10;;;-1.40;80.20;;;;;;5013907;28;20140;-70
2022/12/13 10:33:58;;;;;;;42.10;19.20;;;-1.30;80.10;;;;;;5035233;28;20050;-70
2022/12/13 10:36:34;;;;;;;45.47;18.50;;;-1.30;80.20;;;;;;5018746;28;20046;-70
2022/12/13 10:39:01;;;;;;;38.90;17.63;;;-1.10;80.30;;;;;;5043282;28;20340;-70
2022/12/13 10:42:01;;;;;;;41.50;18.02;;;-1.10;80.20;;;;;;5029162;28;20176;-70
2022/12/13 10:44:29;;;;;;;45.65;19.50;;;-1.00;80.40;;;;;;5022276;28;20494;-70
2022/12/13 10:47:05;;;;;;;47.00;19.23;;;-1.00;80.40;;;;;;5016475;28;20133;-70
2022/12/13 10:49:40;;;;;;;39.37;17.73;;;-0.90;80.50;;;;;;5016755;28;20054;-70
2022/12/13 10:52:22;;;;;;;42.53;16.88;;;-0.80;80.50;;;;;;5014218;28;20262;-70
2022/12/13 10:54:50;;;;;;;42.30;17.65;;;-0.70;80.50;;;;;;5016431;28;20132;-70
2022/12/13 10:57:19;;;;;;;41.55;17.52;;;-0.70;80.50;;;;;;5011388;28;20061;-70
2022/12/13 10:59:48;;;;;;;41.88;18.58;;;-0.60;80.60;;;;;;5006997;28;20055;-70
2022/12/13 11:02:29;;;;;;;39.30;16.93;;;-0.50;80.60;;;;;;5016645;28;20047;-71
2022/12/13 11:04:58;;;;;;;37.17;17.65;;;-0.50;80.70;;;;;;5028201;28;20759;-70
2022/12/13 11:07:28;;;;;;;44.65;19.38;;;-0.40;80.70;;;;;;5029496;28;20058;-70
2022/12/13 11:09:56;;;;;;;37.80;16.88;;;-0.30;80.80;;;;;;5002054;28;20054;-70
2022/12/13 11:12:27;;;;;;;35.45;16.75;;;-0.20;80.90;;;;;;5013071;28;20189;-70
2022/12/13 11:14:57;;;;;;;39.57;17.27;;;-0.10;80.80;;;;;;5019887;28;20054;-70
2022/12/13 11:17:28;;;;;;;36.30;17.05;;;-0.10;80.80;;;;;;5042791;28;20266;-70
2022/12/13 11:19:57;;;;;;;37.40;17.38;;;0.00;80.90;;;;;;5017683;28;20122;-70
2022/12/13 11:22:28;;;;;;;40.70;17.73;;;0.00;80.80;;;;;;5040212;28;20888;-70
2022/12/13 11:25:00;;;;;;;34.40;17.23;;;0.10;80.80;;;;;;5016799;28;20061;-70
2022/12/13 11:27:49;;;;;;;37.10;16.73;;;0.20;80.70;;;;;;5030632;28;20046;-70
2022/12/13 11:30:21;;;;;;;36.17;17.65;;;0.30;80.70;;;;;;5026515;28;20353;-70
2022/12/13 11:33:05;;;;;;;40.65;17.83;;;0.40;80.70;;;;;;5026909;28;20136;-70
2022/12/13 11:35:55;;;;;;;35.70;17.10;;;0.50;80.60;;;;;;5009298;28;20183;-70
2022/12/13 11:38:31;;;;;;;35.80;16.13;;;0.60;80.50;;;;;;5008713;28;20092;-69
2022/12/13 11:41:06;;;;;;;34.10;15.87;;;0.60;80.50;;;;;;5009298;28;20050;-70
2022/12/13 11:43:39;;;;;;;35.22;15.57;;;0.70;80.40;;;;;;5002492;28;20251;-70
2022/12/13 11:46:15;;;;;;;36.47;18.17;;;0.80;80.20;;;;;;5007458;28;20050;-70
2022/12/13 11:48:46;;;;;;;33.15;16.67;;;0.80;80.20;;;;;;5024933;28;20063;-70
2022/12/13 11:51:42;;;;;;;32.13;15.93;;;1.00;80.10;;;;;;5011125;28;20058;-70
2022/12/13 11:54:20;;;;;;;36.37;17.17;;;1.00;79.80;;;;;;5034390;28;20077;-70
2022/12/13 11:56:47;;;;;;;30.88;16.08;;;1.10;79.70;;;;;;5009568;28;20357;-70
2022/12/13 11:59:31;;;;;;;36.38;15.95;;;1.20;79.60;;;;;;5002799;28;20054;-71
2022/12/13 12:02:05;;;;;;;34.42;15.27;;;1.20;79.50;;;;;;5003916;28;20747;-71
2022/12/13 12:04:38;;;;;;;34.63;15.52;;;1.40;79.40;;;;;;5036578;28;20050;-71
2022/12/13 12:07:11;;;;;;;31.07;15.47;;;1.40;79.20;;;;;;5004961;28;20047;-71
2022/12/13 12:09:42;;;;;;;30.95;15.18;;;1.40;79.00;;;;;;5011008;28;20269;-71
2022/12/13 12:12:17;;;;;;;34.90;15.88;;;1.50;79.00;;;;;;5008153;28;20054;-71
2022/12/13 12:14:52;;;;;;;33.10;15.98;;;1.60;79.00;;;;;;5005443;28;20058;-71
2022/12/13 12:17:24;;;;;;;30.52;14.90;;;1.70;78.90;;;;;;5024416;28;20074;-71
2022/12/13 12:19:54;;;;;;;31.60;15.37;;;1.80;78.70;;;;;;5025372;28;21004;-71
2022/12/13 12:22:34;;;;;;;31.00;15.25;;;1.80;78.60;;;;;;5023714;28;20401;-71
2022/12/13 12:25:28;;;;;;;28.98;14.88;;;1.90;78.00;;;;;;5016652;28;20126;-71
2022/12/13 12:28:05;;;;;;;31.00;15.13;;;2.00;77.10;;;;;;5010529;28;20054;-71
2022/12/13 12:30:42;;;;;;;32.75;16.23;;;2.00;76.90;;;;;;5025703;28;20046;-71
2022/12/13 12:33:24;;;;;;;32.93;16.50;;;2.00;76.80;;;;;;5040075;28;20081;-71
2022/12/13 12:36:15;;;;;;;32.35;16.00;;;2.10;76.50;;;;;;5031361;28;20342;-71
2022/12/13 12:39:00;;;;;;;32.33;15.05;;;2.10;76.40;;;;;;5009991;28;20229;-71
2022/12/13 12:41:35;;;;;;;31.70;16.05;;;2.10;76.30;;;;;;5026471;28;20058;-70
2022/12/13 12:44:11;;;;;;;29.20;14.75;;;2.10;76.20;;;;;;5010817;28;20551;-71
2022/12/13 12:46:58;;;;;;;28.93;14.07;;;2.20;76.20;;;;;;5037886;28;20053;-71